Aérodrome :
LOGIN :

S'inscrire | Disclaimer

   EN    FR    IT 

 










Légende :    VFR   VFR Marginal   IFR   IFR Intensif   IFR Très Intensif
Visi : 
Plafond : 
>= 8 km
>= 3000ft
5 à 8 km
1000 à 3000 ft
1500m à 5 km
500 à 1000 ft
800 à 1500m
200 à 500 ft
< 800m
< 200 ft
Symboles :   Orages  Brouillard  Fortes neiges  Fortes précipitations  Vent > 20 kt
SIGMETs :   Divers  Orages  Givrage  Turbulence  Onde Orograph.  Cendres Volcan.







- Altitude de l'aérodrome : 870 ft
- Code IATA : ETZ
- Voir les cartes d'approche


LFJL - Metz Nancy Lorraine

DERNIER METAR :
  • 201430Z AUTO 21004KT 180V250 9999 FEW036/// SCT043/// BKN062/// 15/08 Q1022 NOSIG

METARs EXPIRÉS :
  • 201400Z AUTO 25005KT 220V290 9999 SCT036/// BKN044/// BKN054/// 15/08 Q1022 NOSIG
  • 201330Z AUTO 23004KT 160V310 9999 BKN032/// BKN044/// 16/08 Q1022 NOSIG
  • 201300Z AUTO 22006KT 190V250 9999 BKN031/// BKN040/// BKN062/// 15/08 Q1022 NOSIG
  • 201230Z AUTO 26004KT 220V300 9999 FEW031/// BKN054/// 15/08 Q1023 NOSIG
  • 201200Z AUTO 26006KT 220V290 9999 FEW042/// SCT048/// 15/08 Q1023 NOSIG
  • 201130Z AUTO 25007KT 9999 BKN023/// BKN030/// 15/09 Q1023 NOSIG

TAF TAF LFJL
Valide du 20 à 12h jusqu'au 21 à 12h UTC


201059Z 2012/2112 28005KT 9999 SCT025 BKN040
PROB40 2102/2107 3000 BR
BECMG 2108/2110 10010KT
Pas de NOTAMs connus pour ce terrain.



MET'MAP, la Météo Aéronautique d'un coup d'oeil ! - Copyright ORBIFLY Décembre 2007 - Disclaimer

ORBIFLY MET'MAP TEAM :

Programmation & Développement : Alexandra Zaïnal
Conception & Développement : Baudouin d'Aumeries
Co-Programmation & Développement : Marc-Olivier Méhu
Soutien technique & logistique : Manuel Goepfert

Contact : metmap@orbifly.com




SOURCES & CREDITS :

   NOAA